sensor_id;sensor_type;location;lat;lon;timestamp;pressure;altitude;pressure_sealevel;temperature;humidity
26112;BME280;13829;48.990;8.346;2023-07-20T00:01:34;100317.81;;;20.76;51.59
26112;BME280;13829;48.990;8.346;2023-07-20T00:04:00;100326.28;;;20.63;52.02
26112;BME280;13829;48.990;8.346;2023-07-20T00:06:27;100321.41;;;20.51;52.78
26112;BME280;13829;48.990;8.346;2023-07-20T00:08:55;100327.16;;;20.40;53.50
26112;BME280;13829;48.990;8.346;2023-07-20T00:11:27;100324.91;;;20.29;54.08
26112;BME280;13829;48.990;8.346;2023-07-20T00:13:54;100328.78;;;20.19;54.81
26112;BME280;13829;48.990;8.346;2023-07-20T00:16:21;100323.81;;;20.10;55.56
26112;BME280;13829;48.990;8.346;2023-07-20T00:18:49;100333.06;;;19.99;56.40
26112;BME280;13829;48.990;8.346;2023-07-20T00:21:16;100323.25;;;20.00;56.63
26112;BME280;13829;48.990;8.346;2023-07-20T00:23:43;100331.38;;;19.97;57.14
26112;BME280;13829;48.990;8.346;2023-07-20T00:26:10;100333.50;;;19.87;57.69
26112;BME280;13829;48.990;8.346;2023-07-20T00:28:36;100331.06;;;19.79;57.78
26112;BME280;13829;48.990;8.346;2023-07-20T00:31:04;100338.22;;;19.77;58.60
26112;BME280;13829;48.990;8.346;2023-07-20T00:33:31;100334.19;;;19.65;59.18
26112;BME280;13829;48.990;8.346;2023-07-20T00:36:00;100332.06;;;19.50;59.58
26112;BME280;13829;48.990;8.346;2023-07-20T00:38:26;100328.66;;;19.45;60.56
26112;BME280;13829;48.990;8.346;2023-07-20T00:40:53;100327.25;;;19.33;61.55
26112;BME280;13829;48.990;8.346;2023-07-20T00:43:20;100328.22;;;19.30;62.41
26112;BME280;13829;48.990;8.346;2023-07-20T00:45:48;100321.41;;;19.21;63.13
26112;BME280;13829;48.990;8.346;2023-07-20T00:48:15;100315.00;;;19.27;64.21
26112;BME280;13829;48.990;8.346;2023-07-20T00:50:42;100322.63;;;19.11;64.36
26112;BME280;13829;48.990;8.346;2023-07-20T00:53:11;100321.72;;;19.12;65.44
26112;BME280;13829;48.990;8.346;2023-07-20T00:55:38;100325.53;;;19.03;66.33
26112;BME280;13829;48.990;8.346;2023-07-20T00:58:06;100319.72;;;18.90;67.48
26112;BME280;13829;48.990;8.346;2023-07-20T01:00:33;100320.66;;;18.88;67.75
26112;BME280;13829;48.990;8.346;2023-07-20T01:03:00;100328.00;;;18.80;68.58
26112;BME280;13829;48.990;8.346;2023-07-20T01:05:38;100327.25;;;18.74;69.39
26112;BME280;13829;48.990;8.346;2023-07-20T01:08:17;100325.34;;;18.80;69.33
26112;BME280;13829;48.990;8.346;2023-07-20T01:10:59;100322.47;;;18.86;68.70
26112;BME280;13829;48.990;8.346;2023-07-20T01:13:26;100324.59;;;18.74;69.25
26112;BME280;13829;48.990;8.346;2023-07-20T01:15:57;100331.28;;;18.60;69.89
26112;BME280;13829;48.990;8.346;2023-07-20T01:18:25;100336.63;;;18.58;70.38
26112;BME280;13829;48.990;8.346;2023-07-20T01:20:58;100326.25;;;18.49;70.87
26112;BME280;13829;48.990;8.346;2023-07-20T01:24:05;100323.94;;;18.36;72.24
26112;BME280;13829;48.990;8.346;2023-07-20T01:27:05;100325.06;;;18.28;72.95
26112;BME280;13829;48.990;8.346;2023-07-20T01:30:08;100326.47;;;18.41;72.21
26112;BME280;13829;48.990;8.346;2023-07-20T01:32:42;100324.03;;;18.33;71.98
26112;BME280;13829;48.990;8.346;2023-07-20T01:35:13;100325.97;;;18.28;72.75
26112;BME280;13829;48.990;8.346;2023-07-20T01:37:44;100323.31;;;18.28;73.04
26112;BME280;13829;48.990;8.346;2023-07-20T01:40:14;100327.97;;;18.20;73.61
26112;BME280;13829;48.990;8.346;2023-07-20T01:42:45;100324.50;;;18.16;74.08
26112;BME280;13829;48.990;8.346;2023-07-20T01:45:13;100330.72;;;18.17;74.46
26112;BME280;13829;48.990;8.346;2023-07-20T01:47:41;100328.13;;;18.14;74.86
26112;BME280;13829;48.990;8.346;2023-07-20T01:50:08;100328.28;;;18.07;75.36
26112;BME280;13829;48.990;8.346;2023-07-20T01:52:35;100332.00;;;18.02;75.94
26112;BME280;13829;48.990;8.346;2023-07-20T01:55:03;100335.69;;;17.96;75.88
26112;BME280;13829;48.990;8.346;2023-07-20T01:57:31;100330.44;;;17.93;76.20
26112;BME280;13829;48.990;8.346;2023-07-20T01:59:58;100326.06;;;17.90;76.03
26112;BME280;13829;48.990;8.346;2023-07-20T02:02:27;100334.09;;;17.89;77.02
26112;BME280;13829;48.990;8.346;2023-07-20T02:04:56;100334.16;;;17.86;76.38
26112;BME280;13829;48.990;8.346;2023-07-20T02:07:23;100331.59;;;17.83;77.42
26112;BME280;13829;48.990;8.346;2023-07-20T02:09:50;100330.88;;;17.76;77.88
26112;BME280;13829;48.990;8.346;2023-07-20T02:12:16;100318.34;;;17.80;77.89
26112;BME280;13829;48.990;8.346;2023-07-20T02:14:44;100321.19;;;17.73;78.52
26112;BME280;13829;48.990;8.346;2023-07-20T02:17:11;100325.72;;;17.68;78.55
26112;BME280;13829;48.990;8.346;2023-07-20T02:19:38;100323.22;;;17.64;79.25
26112;BME280;13829;48.990;8.346;2023-07-20T02:22:06;100326.88;;;17.58;79.72
26112;BME280;13829;48.990;8.346;2023-07-20T02:24:33;100326.78;;;17.63;79.51
26112;BME280;13829;48.990;8.346;2023-07-20T02:27:00;100318.72;;;17.66;78.97
26112;BME280;13829;48.990;8.346;2023-07-20T02:29:27;100321.63;;;17.56;79.20
26112;BME280;13829;48.990;8.346;2023-07-20T02:31:54;100322.66;;;17.51;79.45
26112;BME280;13829;48.990;8.346;2023-07-20T02:34:21;100320.22;;;17.41;79.94
26112;BME280;13829;48.990;8.346;2023-07-20T02:36:48;100312.16;;;17.44;79.89
26112;BME280;13829;48.990;8.346;2023-07-20T02:39:16;100324.81;;;17.35;80.54
26112;BME280;13829;48.990;8.346;2023-07-20T02:41:43;100321.28;;;17.34;80.48
26112;BME280;13829;48.990;8.346;2023-07-20T02:44:10;100324.84;;;17.33;80.88
26112;BME280;13829;48.990;8.346;2023-07-20T02:46:37;100325.91;;;17.26;81.61
26112;BME280;13829;48.990;8.346;2023-07-20T02:49:04;100324.09;;;17.28;81.52
26112;BME280;13829;48.990;8.346;2023-07-20T02:51:31;100326.91;;;17.22;82.47
26112;BME280;13829;48.990;8.346;2023-07-20T02:53:58;100321.63;;;17.19;82.60
26112;BME280;13829;48.990;8.346;2023-07-20T02:56:27;100321.63;;;17.20;82.54
26112;BME280;13829;48.990;8.346;2023-07-20T02:58:54;100328.72;;;17.20;83.00
26112;BME280;13829;48.990;8.346;2023-07-20T03:01:21;100323.47;;;17.17;83.58
26112;BME280;13829;48.990;8.346;2023-07-20T03:03:48;100328.03;;;17.10;84.02
26112;BME280;13829;48.990;8.346;2023-07-20T03:06:16;100328.88;;;17.12;83.97
26112;BME280;13829;48.990;8.346;2023-07-20T03:08:43;100324.53;;;17.09;84.18
26112;BME280;13829;48.990;8.346;2023-07-20T03:11:13;100331.72;;;17.04;84.15
26112;BME280;13829;48.990;8.346;2023-07-20T03:13:42;100330.00;;;17.02;84.93
26112;BME280;13829;48.990;8.346;2023-07-20T03:16:09;100337.81;;;17.09;85.35
26112;BME280;13829;48.990;8.346;2023-07-20T03:18:38;100336.00;;;17.10;84.88
26112;BME280;13829;48.990;8.346;2023-07-20T03:21:05;100345.09;;;17.01;85.25
26112;BME280;13829;48.990;8.346;2023-07-20T03:23:32;100340.88;;;16.91;86.19
26112;BME280;13829;48.990;8.346;2023-07-20T03:26:00;100342.63;;;16.90;85.53
26112;BME280;13829;48.990;8.346;2023-07-20T03:28:27;100337.41;;;16.87;86.36
26112;BME280;13829;48.990;8.346;2023-07-20T03:30:56;100340.03;;;16.89;86.92
26112;BME280;13829;48.990;8.346;2023-07-20T03:33:26;100342.50;;;16.98;86.03
26112;BME280;13829;48.990;8.346;2023-07-20T03:35:53;100346.75;;;17.05;85.35
26112;BME280;13829;48.990;8.346;2023-07-20T03:38:21;100342.63;;;16.92;86.11
26112;BME280;13829;48.990;8.346;2023-07-20T03:40:52;100346.19;;;16.92;86.40
26112;BME280;13829;48.990;8.346;2023-07-20T03:43:19;100343.66;;;16.85;86.46
26112;BME280;13829;48.990;8.346;2023-07-20T03:45:46;100341.00;;;16.85;87.45
26112;BME280;13829;48.990;8.346;2023-07-20T03:48:16;100346.19;;;16.92;86.83
26112;BME280;13829;48.990;8.346;2023-07-20T03:50:45;100342.81;;;16.83;87.83
26112;BME280;13829;48.990;8.346;2023-07-20T03:53:12;100336.59;;;16.84;87.98
26112;BME280;13829;48.990;8.346;2023-07-20T03:55:39;100338.44;;;16.80;88.50
26112;BME280;13829;48.990;8.346;2023-07-20T03:58:06;100357.06;;;16.78;88.80
26112;BME280;13829;48.990;8.346;2023-07-20T04:00:33;100352.53;;;16.84;89.44
26112;BME280;13829;48.990;8.346;2023-07-20T04:03:00;100357.84;;;16.84;89.48
26112;BME280;13829;48.990;8.346;2023-07-20T04:05:29;100348.03;;;16.87;89.61
26112;BME280;13829;48.990;8.346;2023-07-20T04:07:56;100355.06;;;16.90;89.74
26112;BME280;13829;48.990;8.346;2023-07-20T04:10:23;100355.84;;;16.95;90.02
26112;BME280;13829;48.990;8.346;2023-07-20T04:12:50;100349.47;;;17.04;89.56
26112;BME280;13829;48.990;8.346;2023-07-20T04:15:17;100361.50;;;17.19;88.64
26112;BME280;13829;48.990;8.346;2023-07-20T04:17:45;100357.03;;;17.21;88.09
26112;BME280;13829;48.990;8.346;2023-07-20T04:20:12;100358.84;;;17.19;88.10
26112;BME280;13829;48.990;8.346;2023-07-20T04:22:40;100362.50;;;17.15;88.36
26112;BME280;13829;48.990;8.346;2023-07-20T04:25:08;100355.22;;;17.23;88.42
26112;BME280;13829;48.990;8.346;2023-07-20T04:27:35;100359.56;;;17.27;88.19
26112;BME280;13829;48.990;8.346;2023-07-20T04:30:03;100351.56;;;17.27;88.10
26112;BME280;13829;48.990;8.346;2023-07-20T04:32:30;100361.16;;;17.34;87.96
26112;BME280;13829;48.990;8.346;2023-07-20T04:34:59;100358.31;;;17.42;87.92
26112;BME280;13829;48.990;8.346;2023-07-20T04:37:26;100358.00;;;17.54;87.68
26112;BME280;13829;48.990;8.346;2023-07-20T04:39:54;100362.97;;;17.70;86.13
26112;BME280;13829;48.990;8.346;2023-07-20T04:42:21;100359.53;;;17.65;85.94
26112;BME280;13829;48.990;8.346;2023-07-20T04:44:48;100363.22;;;17.59;86.42
26112;BME280;13829;48.990;8.346;2023-07-20T04:47:15;100364.16;;;17.56;86.77
26112;BME280;13829;48.990;8.346;2023-07-20T04:49:42;100357.09;;;17.55;86.92
26112;BME280;13829;48.990;8.346;2023-07-20T04:52:09;100367.66;;;17.58;87.04
26112;BME280;13829;48.990;8.346;2023-07-20T04:54:36;100369.41;;;17.59;87.58
26112;BME280;13829;48.990;8.346;2023-07-20T04:57:10;100368.38;;;17.65;87.50
26112;BME280;13829;48.990;8.346;2023-07-20T04:59:37;100369.09;;;17.73;87.77
26112;BME280;13829;48.990;8.346;2023-07-20T05:02:05;100357.53;;;17.73;88.03
26112;BME280;13829;48.990;8.346;2023-07-20T05:04:31;100369.75;;;17.82;87.88
26112;BME280;13829;48.990;8.346;2023-07-20T05:06:58;100366.72;;;17.97;86.95
26112;BME280;13829;48.990;8.346;2023-07-20T05:09:25;100366.53;;;18.03;86.58
26112;BME280;13829;48.990;8.346;2023-07-20T05:11:52;100367.22;;;18.12;86.11
26112;BME280;13829;48.990;8.346;2023-07-20T05:14:20;100374.78;;;18.27;84.61
26112;BME280;13829;48.990;8.346;2023-07-20T05:16:47;100368.41;;;18.34;84.32
26112;BME280;13829;48.990;8.346;2023-07-20T05:19:14;100367.03;;;18.51;83.24
26112;BME280;13829;48.990;8.346;2023-07-20T05:21:41;100363.09;;;18.64;82.71
26112;BME280;13829;48.990;8.346;2023-07-20T05:24:08;100364.56;;;18.74;81.66
26112;BME280;13829;48.990;8.346;2023-07-20T05:26:35;100362.06;;;19.00;80.17
26112;BME280;13829;48.990;8.346;2023-07-20T05:29:03;100359.88;;;19.14;77.88
26112;BME280;13829;48.990;8.346;2023-07-20T05:31:32;100361.81;;;19.07;78.88
26112;BME280;13829;48.990;8.346;2023-07-20T05:33:59;100354.63;;;19.11;78.70
26112;BME280;13829;48.990;8.346;2023-07-20T05:36:26;100360.41;;;19.26;77.91
26112;BME280;13829;48.990;8.346;2023-07-20T05:38:53;100357.44;;;19.35;77.36
26112;BME280;13829;48.990;8.346;2023-07-20T05:41:20;100356.06;;;19.50;77.11
26112;BME280;13829;48.990;8.346;2023-07-20T05:43:48;100359.03;;;19.67;76.61
26112;BME280;13829;48.990;8.346;2023-07-20T05:46:15;100358.72;;;19.77;75.82
26112;BME280;13829;48.990;8.346;2023-07-20T05:48:43;100358.44;;;19.86;74.41
26112;BME280;13829;48.990;8.346;2023-07-20T05:51:10;100354.31;;;20.02;74.34
26112;BME280;13829;48.990;8.346;2023-07-20T05:53:37;100359.72;;;20.26;73.75
26112;BME280;13829;48.990;8.346;2023-07-20T05:56:04;100353.69;;;20.45;72.09
26112;BME280;13829;48.990;8.346;2023-07-20T05:58:31;100357.31;;;20.67;69.64
26112;BME280;13829;48.990;8.346;2023-07-20T06:00:58;100360.72;;;20.73;68.86
26112;BME280;13829;48.990;8.346;2023-07-20T06:03:25;100365.06;;;20.75;67.87
26112;BME280;13829;48.990;8.346;2023-07-20T06:05:59;100354.41;;;20.97;68.01
26112;BME280;13829;48.990;8.346;2023-07-20T06:08:26;100358.53;;;21.06;66.14
26112;BME280;13829;48.990;8.346;2023-07-20T06:10:53;100364.75;;;21.29;65.67
26112;BME280;13829;48.990;8.346;2023-07-20T06:13:21;100363.53;;;21.38;64.10
26112;BME280;13829;48.990;8.346;2023-07-20T06:15:48;100369.13;;;21.31;62.91
26112;BME280;13829;48.990;8.346;2023-07-20T06:18:15;100373.59;;;21.31;62.70
26112;BME280;13829;48.990;8.346;2023-07-20T06:20:42;100372.38;;;21.40;62.79
26112;BME280;13829;48.990;8.346;2023-07-20T06:23:10;100373.97;;;21.44;63.09
26112;BME280;13829;48.990;8.346;2023-07-20T06:25:37;100371.84;;;21.52;63.22
26112;BME280;13829;48.990;8.346;2023-07-20T06:28:04;100376.03;;;21.59;62.61
26112;BME280;13829;48.990;8.346;2023-07-20T06:30:34;100373.78;;;21.71;61.74
26112;BME280;13829;48.990;8.346;2023-07-20T06:33:01;100370.53;;;21.85;61.75
26112;BME280;13829;48.990;8.346;2023-07-20T06:35:27;100375.38;;;22.18;60.35
26112;BME280;13829;48.990;8.346;2023-07-20T06:37:54;100380.69;;;22.40;58.77
26112;BME280;13829;48.990;8.346;2023-07-20T06:40:23;100372.63;;;22.60;57.73
26112;BME280;13829;48.990;8.346;2023-07-20T06:42:49;100371.63;;;22.82;57.59
26112;BME280;13829;48.990;8.346;2023-07-20T06:45:17;100374.09;;;23.06;56.46
26112;BME280;13829;48.990;8.346;2023-07-20T06:47:44;100373.22;;;23.43;55.50
26112;BME280;13829;48.990;8.346;2023-07-20T06:50:11;100370.38;;;24.01;53.09
26112;BME280;13829;48.990;8.346;2023-07-20T06:52:38;100372.03;;;24.03;53.73
26112;BME280;13829;48.990;8.346;2023-07-20T06:55:07;100366.38;;;24.25;50.77
26112;BME280;13829;48.990;8.346;2023-07-20T06:57:35;100363.16;;;24.52;50.78
26112;BME280;13829;48.990;8.346;2023-07-20T07:00:02;100360.72;;;24.65;50.02
26112;BME280;13829;48.990;8.346;2023-07-20T07:02:32;100364.66;;;24.58;49.87
26112;BME280;13829;48.990;8.346;2023-07-20T07:05:00;100375.38;;;24.42;50.41
26112;BME280;13829;48.990;8.346;2023-07-20T07:07:27;100368.72;;;24.49;51.77
26112;BME280;13829;48.990;8.346;2023-07-20T07:09:54;100373.47;;;26.04;48.62
26112;BME280;13829;48.990;8.346;2023-07-20T07:12:21;100366.47;;;26.75;44.13
26112;BME280;13829;48.990;8.346;2023-07-20T07:14:49;100366.56;;;26.74;44.58
26112;BME280;13829;48.990;8.346;2023-07-20T07:17:16;100368.00;;;26.05;46.00
26112;BME280;13829;48.990;8.346;2023-07-20T07:19:43;100366.69;;;25.82;47.80
26112;BME280;13829;48.990;8.346;2023-07-20T07:22:10;100369.63;;;25.78;47.35
26112;BME280;13829;48.990;8.346;2023-07-20T07:24:39;100363.06;;;26.57;45.78
26112;BME280;13829;48.990;8.346;2023-07-20T07:27:08;100359.88;;;27.35;43.71
26112;BME280;13829;48.990;8.346;2023-07-20T07:29:35;100350.72;;;27.38;43.83
26112;BME280;13829;48.990;8.346;2023-07-20T07:32:05;100362.41;;;26.82;44.87
26112;BME280;13829;48.990;8.346;2023-07-20T07:34:32;100363.72;;;26.32;45.56
26112;BME280;13829;48.990;8.346;2023-07-20T07:37:00;100372.63;;;25.73;46.71
26112;BME280;13829;48.990;8.346;2023-07-20T07:39:27;100366.31;;;25.42;46.83
26112;BME280;13829;48.990;8.346;2023-07-20T07:41:56;100362.09;;;25.38;47.52
26112;BME280;13829;48.990;8.346;2023-07-20T07:44:23;100371.44;;;25.15;47.62
26112;BME280;13829;48.990;8.346;2023-07-20T07:46:50;100375.69;;;25.03;48.29
26112;BME280;13829;48.990;8.346;2023-07-20T07:49:18;100368.16;;;25.58;46.81
26112;BME280;13829;48.990;8.346;2023-07-20T07:51:45;100369.47;;;25.81;46.94
26112;BME280;13829;48.990;8.346;2023-07-20T07:54:12;100355.63;;;27.18;44.53
26112;BME280;13829;48.990;8.346;2023-07-20T07:56:39;100355.41;;;28.68;41.53
26112;BME280;13829;48.990;8.346;2023-07-20T07:59:06;100359.47;;;29.97;38.33
26112;BME280;13829;48.990;8.346;2023-07-20T08:01:33;100364.13;;;30.87;36.83
26112;BME280;13829;48.990;8.346;2023-07-20T08:04:00;100349.09;;;31.82;34.42
26112;BME280;13829;48.990;8.346;2023-07-20T08:06:29;100353.19;;;31.97;33.72
26112;BME280;13829;48.990;8.346;2023-07-20T08:08:57;100356.38;;;32.45;34.42
26112;BME280;13829;48.990;8.346;2023-07-20T08:11:24;100359.44;;;32.92;32.18
26112;BME280;13829;48.990;8.346;2023-07-20T08:13:51;100352.34;;;33.11;31.78
26112;BME280;13829;48.990;8.346;2023-07-20T08:16:18;100359.22;;;33.15;31.13
26112;BME280;13829;48.990;8.346;2023-07-20T08:18:45;100358.72;;;33.31;30.58
26112;BME280;13829;48.990;8.346;2023-07-20T08:21:12;100358.09;;;33.27;31.14
26112;BME280;13829;48.990;8.346;2023-07-20T08:23:40;100355.69;;;32.74;33.22
26112;BME280;13829;48.990;8.346;2023-07-20T08:26:07;100351.59;;;32.68;33.22
26112;BME280;13829;48.990;8.346;2023-07-20T08:28:34;100358.66;;;32.40;33.07
26112;BME280;13829;48.990;8.346;2023-07-20T08:31:01;100355.31;;;32.15;33.33
26112;BME280;13829;48.990;8.346;2023-07-20T08:33:29;100353.81;;;31.36;33.44
26112;BME280;13829;48.990;8.346;2023-07-20T08:35:59;100352.63;;;31.61;33.81
26112;BME280;13829;48.990;8.346;2023-07-20T08:38:27;100360.69;;;31.51;32.15
26112;BME280;13829;48.990;8.346;2023-07-20T08:40:55;100359.50;;;31.77;32.34
26112;BME280;13829;48.990;8.346;2023-07-20T08:43:23;100352.56;;;32.05;32.58
26112;BME280;13829;48.990;8.346;2023-07-20T08:45:53;100354.06;;;31.77;32.28
26112;BME280;13829;48.990;8.346;2023-07-20T08:48:21;100360.41;;;30.99;33.63
26112;BME280;13829;48.990;8.346;2023-07-20T08:50:51;100355.47;;;31.04;33.25
26112;BME280;13829;48.990;8.346;2023-07-20T08:53:18;100352.91;;;31.14;32.88
26112;BME280;13829;48.990;8.346;2023-07-20T08:55:45;100350.81;;;31.06;32.16
26112;BME280;13829;48.990;8.346;2023-07-20T08:58:16;100360.69;;;30.73;32.56
26112;BME280;13829;48.990;8.346;2023-07-20T09:00:44;100359.34;;;30.68;33.73
26112;BME280;13829;48.990;8.346;2023-07-20T09:03:12;100359.47;;;30.55;31.73
26112;BME280;13829;48.990;8.346;2023-07-20T09:05:41;100360.72;;;30.04;33.29
26112;BME280;13829;48.990;8.346;2023-07-20T09:08:08;100362.84;;;30.12;33.30
26112;BME280;13829;48.990;8.346;2023-07-20T09:10:35;100359.78;;;30.28;34.01
26112;BME280;13829;48.990;8.346;2023-07-20T09:13:02;100354.56;;;30.13;32.85
26112;BME280;13829;48.990;8.346;2023-07-20T09:15:30;100358.63;;;29.96;33.44
26112;BME280;13829;48.990;8.346;2023-07-20T09:18:01;100357.94;;;29.57;35.34
26112;BME280;13829;48.990;8.346;2023-07-20T09:20:32;100350.78;;;29.56;34.05
26112;BME280;13829;48.990;8.346;2023-07-20T09:23:04;100346.06;;;29.71;35.20
26112;BME280;13829;48.990;8.346;2023-07-20T09:25:32;100348.13;;;29.91;34.75
26112;BME280;13829;48.990;8.346;2023-07-20T09:28:02;100355.59;;;29.88;35.57
26112;BME280;13829;48.990;8.346;2023-07-20T09:30:31;100350.09;;;29.65;33.81
26112;BME280;13829;48.990;8.346;2023-07-20T09:32:58;100346.78;;;29.73;34.99
26112;BME280;13829;48.990;8.346;2023-07-20T09:35:26;100347.78;;;29.83;34.54
26112;BME280;13829;48.990;8.346;2023-07-20T09:37:58;100340.72;;;29.69;33.85
26112;BME280;13829;48.990;8.346;2023-07-20T09:40:26;100347.25;;;29.18;32.95
26112;BME280;13829;48.990;8.346;2023-07-20T09:42:54;100334.84;;;29.03;34.64
26112;BME280;13829;48.990;8.346;2023-07-20T09:45:31;100341.63;;;29.08;37.87
26112;BME280;13829;48.990;8.346;2023-07-20T09:48:04;100345.47;;;28.93;34.40
26112;BME280;13829;48.990;8.346;2023-07-20T09:50:32;100333.84;;;28.79;34.08
26112;BME280;13829;48.990;8.346;2023-07-20T09:53:01;100338.81;;;28.60;34.11
26112;BME280;13829;48.990;8.346;2023-07-20T09:55:29;100328.97;;;28.46;35.28
26112;BME280;13829;48.990;8.346;2023-07-20T09:57:56;100334.38;;;28.46;35.65
26112;BME280;13829;48.990;8.346;2023-07-20T10:00:24;100329.66;;;28.37;36.45
26112;BME280;13829;48.990;8.346;2023-07-20T10:02:53;100326.50;;;28.43;36.26
26112;BME280;13829;48.990;8.346;2023-07-20T10:05:24;100333.31;;;28.23;34.98
26112;BME280;13829;48.990;8.346;2023-07-20T10:07:53;100330.94;;;28.18;35.89
26112;BME280;13829;48.990;8.346;2023-07-20T10:10:20;100325.22;;;28.23;36.11
26112;BME280;13829;48.990;8.346;2023-07-20T10:12:48;100319.28;;;28.18;34.89
26112;BME280;13829;48.990;8.346;2023-07-20T10:15:22;100310.09;;;28.07;35.87
26112;BME280;13829;48.990;8.346;2023-07-20T10:18:01;100312.94;;;27.91;34.07
26112;BME280;13829;48.990;8.346;2023-07-20T10:20:32;100318.22;;;27.40;36.74
26112;BME280;13829;48.990;8.346;2023-07-20T10:23:00;100309.50;;;27.22;36.30
26112;BME280;13829;48.990;8.346;2023-07-20T10:25:29;100304.63;;;27.14;35.51
26112;BME280;13829;48.990;8.346;2023-07-20T10:27:57;100305.22;;;27.05;34.79
26112;BME280;13829;48.990;8.346;2023-07-20T10:30:26;100304.91;;;27.09;36.11
26112;BME280;13829;48.990;8.346;2023-07-20T10:32:55;100308.56;;;27.08;36.56
26112;BME280;13829;48.990;8.346;2023-07-20T10:35:22;100299.72;;;27.06;36.20
26112;BME280;13829;48.990;8.346;2023-07-20T10:37:52;100293.13;;;26.83;35.96
26112;BME280;13829;48.990;8.346;2023-07-20T10:40:30;100287.44;;;26.59;36.44
26112;BME280;13829;48.990;8.346;2023-07-20T10:43:03;100282.84;;;26.61;38.04
26112;BME280;13829;48.990;8.346;2023-07-20T10:45:48;100284.38;;;26.50;38.30
26112;BME280;13829;48.990;8.346;2023-07-20T10:48:19;100278.03;;;26.37;38.05
26112;BME280;13829;48.990;8.346;2023-07-20T10:51:11;100271.31;;;26.30;37.28
26112;BME280;13829;48.990;8.346;2023-07-20T10:53:39;100283.59;;;26.48;39.09
26112;BME280;13829;48.990;8.346;2023-07-20T10:56:07;100285.25;;;26.65;37.35
26112;BME280;13829;48.990;8.346;2023-07-20T10:58:34;100280.63;;;26.82;37.97
26112;BME280;13829;48.990;8.346;2023-07-20T11:01:03;100273.59;;;27.07;37.43
26112;BME280;13829;48.990;8.346;2023-07-20T11:03:35;100268.97;;;27.09;36.09
26112;BME280;13829;48.990;8.346;2023-07-20T11:06:42;100270.59;;;27.11;36.19
26112;BME280;13829;48.990;8.346;2023-07-20T11:09:12;100273.91;;;27.02;34.14
26112;BME280;13829;48.990;8.346;2023-07-20T11:11:42;100273.59;;;26.79;35.40
26112;BME280;13829;48.990;8.346;2023-07-20T11:14:11;100267.00;;;26.83;35.53
26112;BME280;13829;48.990;8.346;2023-07-20T11:16:48;100260.50;;;27.00;35.06
26112;BME280;13829;48.990;8.346;2023-07-20T11:19:20;100260.59;;;26.99;35.24
26112;BME280;13829;48.990;8.346;2023-07-20T11:21:51;100258.69;;;27.01;33.83
26112;BME280;13829;48.990;8.346;2023-07-20T11:24:19;100255.72;;;27.18;34.99
26112;BME280;13829;48.990;8.346;2023-07-20T11:26:47;100259.16;;;27.21;35.66
26112;BME280;13829;48.990;8.346;2023-07-20T11:29:16;100256.72;;;27.03;34.21
26112;BME280;13829;48.990;8.346;2023-07-20T11:31:46;100259.09;;;26.95;33.88
26112;BME280;13829;48.990;8.346;2023-07-20T11:34:14;100244.13;;;27.04;35.70
26112;BME280;13829;48.990;8.346;2023-07-20T11:36:45;100243.44;;;27.00;35.57
26112;BME280;13829;48.990;8.346;2023-07-20T11:39:14;100236.53;;;26.96;34.37
26112;BME280;13829;48.990;8.346;2023-07-20T11:41:46;100236.88;;;27.04;34.49
26112;BME280;13829;48.990;8.346;2023-07-20T11:44:15;100233.00;;;27.08;36.48
26112;BME280;13829;48.990;8.346;2023-07-20T11:46:43;100233.66;;;27.12;35.09
26112;BME280;13829;48.990;8.346;2023-07-20T11:49:11;100228.81;;;27.17;34.60
26112;BME280;13829;48.990;8.346;2023-07-20T11:51:40;100224.84;;;27.23;33.38
26112;BME280;13829;48.990;8.346;2023-07-20T11:54:09;100230.22;;;27.10;34.10
26112;BME280;13829;48.990;8.346;2023-07-20T11:56:41;100226.84;;;27.06;34.74
26112;BME280;13829;48.990;8.346;2023-07-20T11:59:08;100218.66;;;27.21;34.78
26112;BME280;13829;48.990;8.346;2023-07-20T12:01:35;100219.72;;;27.05;33.43
26112;BME280;13829;48.990;8.346;2023-07-20T12:04:03;100215.56;;;26.72;33.88
26112;BME280;13829;48.990;8.346;2023-07-20T12:06:32;100213.16;;;26.67;35.15
26112;BME280;13829;48.990;8.346;2023-07-20T12:08:59;100219.44;;;26.68;34.55
26112;BME280;13829;48.990;8.346;2023-07-20T12:11:36;100213.47;;;26.63;34.23
26112;BME280;13829;48.990;8.346;2023-07-20T12:14:04;100207.25;;;26.48;34.26
26112;BME280;13829;48.990;8.346;2023-07-20T12:16:33;100203.72;;;26.75;35.58
26112;BME280;13829;48.990;8.346;2023-07-20T12:19:01;100201.47;;;26.81;35.30
26112;BME280;13829;48.990;8.346;2023-07-20T12:21:29;100204.59;;;26.75;34.26
26112;BME280;13829;48.990;8.346;2023-07-20T12:23:56;100205.38;;;26.63;33.90
26112;BME280;13829;48.990;8.346;2023-07-20T12:26:25;100202.47;;;26.66;33.69
26112;BME280;13829;48.990;8.346;2023-07-20T12:28:53;100202.91;;;26.45;34.51
26112;BME280;13829;48.990;8.346;2023-07-20T12:31:20;100200.22;;;26.31;34.00
26112;BME280;13829;48.990;8.346;2023-07-20T12:33:48;100198.53;;;26.30;32.69
26112;BME280;13829;48.990;8.346;2023-07-20T12:36:15;100181.59;;;26.13;33.33
26112;BME280;13829;48.990;8.346;2023-07-20T12:38:42;100182.94;;;26.06;34.27
26112;BME280;13829;48.990;8.346;2023-07-20T12:41:11;100179.63;;;26.44;34.46
26112;BME280;13829;48.990;8.346;2023-07-20T12:43:40;100185.78;;;26.46;35.43
26112;BME280;13829;48.990;8.346;2023-07-20T12:46:09;100180.56;;;26.58;33.74
26112;BME280;13829;48.990;8.346;2023-07-20T12:48:37;100183.03;;;26.61;33.90
26112;BME280;13829;48.990;8.346;2023-07-20T12:51:06;100182.06;;;26.62;32.59
26112;BME280;13829;48.990;8.346;2023-07-20T12:53:34;100181.81;;;26.52;32.45
26112;BME280;13829;48.990;8.346;2023-07-20T12:56:02;100173.56;;;26.68;31.39
26112;BME280;13829;48.990;8.346;2023-07-20T12:58:31;100170.34;;;26.48;32.07